Weather at Mbaruk Airport

Public forecast

Using degrees Celsius for public forecast. Weather courtesy of forecast.io.

Closest aviation weather report (METAR) to Mbaruk Airport

Closest report is Nakuru Airport, 6.8 nm (12.7 km) NNW.

2024/02/24 15:00 (retrieved 31 minutes ago)

HKNK 241500Z 00000KT 9999 BKN021 21/12

Closest aviation forecast (TAF) to Mbaruk Airport

Closest forecast is Nairobi Wilson Airport, 66.1 nm (122.5 km) SSE.

2024/02/24 12:00 (retrieved 4 hours ago)

TAF HKNW 241100Z 2412/2512 07010KT 9999 BKN026 PROB40 TEMPO 2413/2417 -SHRA FEW022CB SCT023 BECMG 2500/2503 35005KT NSW SCT009 BKN017 BECMG 2508/2511 06010KT BKN025